sensor_id;sensor_type;location;lat;lon;timestamp;P1;durP1;ratioP1;P2;durP2;ratioP2
57395;SDS011;43222;52.912;6.940;2022-12-08T00:01:33;7.95;;;1.65;;
57395;SDS011;43222;52.912;6.940;2022-12-08T00:03:59;8.23;;;1.85;;
57395;SDS011;43222;52.912;6.940;2022-12-08T00:06:33;6.63;;;1.45;;
57395;SDS011;43222;52.912;6.940;2022-12-08T00:09:30;6.82;;;1.63;;
57395;SDS011;43222;52.912;6.940;2022-12-08T00:15:02;8.57;;;2.25;;
57395;SDS011;43222;52.912;6.940;2022-12-08T00:17:20;13.43;;;2.03;;
57395;SDS011;43222;52.912;6.940;2022-12-08T00:19:46;11.77;;;2.05;;
57395;SDS011;43222;52.912;6.940;2022-12-08T00:22:14;9.77;;;1.90;;
57395;SDS011;43222;52.912;6.940;2022-12-08T00:24:40;8.32;;;2.05;;
57395;SDS011;43222;52.912;6.940;2022-12-08T00:27:09;7.82;;;1.80;;
57395;SDS011;43222;52.912;6.940;2022-12-08T00:29:36;6.18;;;1.70;;
57395;SDS011;43222;52.912;6.940;2022-12-08T00:32:02;8.73;;;1.92;;
57395;SDS011;43222;52.912;6.940;2022-12-08T00:34:29;8.65;;;2.00;;
57395;SDS011;43222;52.912;6.940;2022-12-08T00:36:55;10.90;;;1.90;;
57395;SDS011;43222;52.912;6.940;2022-12-08T00:39:21;9.35;;;2.28;;
57395;SDS011;43222;52.912;6.940;2022-12-08T00:41:47;11.60;;;2.42;;
57395;SDS011;43222;52.912;6.940;2022-12-08T00:44:32;7.47;;;1.77;;
57395;SDS011;43222;52.912;6.940;2022-12-08T00:46:58;7.35;;;2.35;;
57395;SDS011;43222;52.912;6.940;2022-12-08T00:49:24;6.47;;;2.10;;
57395;SDS011;43222;52.912;6.940;2022-12-08T00:51:50;8.48;;;1.88;;
57395;SDS011;43222;52.912;6.940;2022-12-08T00:54:16;9.57;;;1.98;;
57395;SDS011;43222;52.912;6.940;2022-12-08T00:56:42;11.45;;;2.00;;
57395;SDS011;43222;52.912;6.940;2022-12-08T00:59:08;9.70;;;2.63;;
57395;SDS011;43222;52.912;6.940;2022-12-08T01:01:35;10.68;;;2.13;;
57395;SDS011;43222;52.912;6.940;2022-12-08T01:04:02;12.32;;;2.13;;
57395;SDS011;43222;52.912;6.940;2022-12-08T01:06:28;9.20;;;2.50;;
57395;SDS011;43222;52.912;6.940;2022-12-08T01:08:54;10.35;;;2.17;;
57395;SDS011;43222;52.912;6.940;2022-12-08T01:11:20;11.18;;;1.90;;
57395;SDS011;43222;52.912;6.940;2022-12-08T01:13:46;13.48;;;2.00;;
57395;SDS011;43222;52.912;6.940;2022-12-08T01:16:23;9.13;;;1.80;;
57395;SDS011;43222;52.912;6.940;2022-12-08T01:18:49;9.45;;;1.70;;
57395;SDS011;43222;52.912;6.940;2022-12-08T01:21:15;5.82;;;1.73;;
57395;SDS011;43222;52.912;6.940;2022-12-08T01:23:41;11.30;;;2.05;;
57395;SDS011;43222;52.912;6.940;2022-12-08T01:26:08;6.72;;;1.88;;
57395;SDS011;43222;52.912;6.940;2022-12-08T01:28:35;10.45;;;1.73;;
57395;SDS011;43222;52.912;6.940;2022-12-08T01:31:01;8.93;;;1.90;;
57395;SDS011;43222;52.912;6.940;2022-12-08T01:33:27;5.22;;;1.50;;
57395;SDS011;43222;52.912;6.940;2022-12-08T01:35:54;12.90;;;2.30;;
57395;SDS011;43222;52.912;6.940;2022-12-08T01:38:20;9.55;;;1.75;;
57395;SDS011;43222;52.912;6.940;2022-12-08T01:40:46;10.57;;;2.25;;
57395;SDS011;43222;52.912;6.940;2022-12-08T01:43:17;8.15;;;2.08;;
57395;SDS011;43222;52.912;6.940;2022-12-08T01:45:43;6.13;;;1.90;;
57395;SDS011;43222;52.912;6.940;2022-12-08T01:48:24;14.43;;;2.03;;
57395;SDS011;43222;52.912;6.940;2022-12-08T01:50:51;8.25;;;1.90;;
57395;SDS011;43222;52.912;6.940;2022-12-08T01:53:22;9.32;;;1.88;;
57395;SDS011;43222;52.912;6.940;2022-12-08T01:55:53;11.47;;;2.47;;
57395;SDS011;43222;52.912;6.940;2022-12-08T01:58:40;7.45;;;1.92;;
57395;SDS011;43222;52.912;6.940;2022-12-08T02:01:08;10.52;;;2.55;;
57395;SDS011;43222;52.912;6.940;2022-12-08T02:03:40;8.60;;;2.13;;
57395;SDS011;43222;52.912;6.940;2022-12-08T02:06:07;8.27;;;2.20;;
57395;SDS011;43222;52.912;6.940;2022-12-08T02:08:33;8.05;;;2.30;;
57395;SDS011;43222;52.912;6.940;2022-12-08T02:11:00;8.85;;;2.60;;
57395;SDS011;43222;52.912;6.940;2022-12-08T02:13:26;9.63;;;2.38;;
57395;SDS011;43222;52.912;6.940;2022-12-08T02:16:02;6.75;;;2.40;;
57395;SDS011;43222;52.912;6.940;2022-12-08T02:21:01;10.30;;;2.72;;
57395;SDS011;43222;52.912;6.940;2022-12-08T02:23:40;7.32;;;2.63;;
57395;SDS011;43222;52.912;6.940;2022-12-08T02:41:50;8.73;;;2.53;;
57395;SDS011;43222;52.912;6.940;2022-12-08T02:44:20;8.40;;;2.20;;
57395;SDS011;43222;52.912;6.940;2022-12-08T02:46:59;6.85;;;2.22;;
57395;SDS011;43222;52.912;6.940;2022-12-08T02:49:30;4.63;;;2.20;;
57395;SDS011;43222;52.912;6.940;2022-12-08T02:52:04;6.20;;;2.08;;
57395;SDS011;43222;52.912;6.940;2022-12-08T02:54:30;6.03;;;1.60;;
57395;SDS011;43222;52.912;6.940;2022-12-08T02:57:01;5.32;;;2.05;;
57395;SDS011;43222;52.912;6.940;2022-12-08T03:07:46;9.80;;;2.42;;
57395;SDS011;43222;52.912;6.940;2022-12-08T03:15:04;9.20;;;2.20;;
57395;SDS011;43222;52.912;6.940;2022-12-08T03:17:32;10.50;;;3.15;;
57395;SDS011;43222;52.912;6.940;2022-12-08T03:20:00;8.95;;;2.65;;
57395;SDS011;43222;52.912;6.940;2022-12-08T03:22:28;6.03;;;1.90;;
57395;SDS011;43222;52.912;6.940;2022-12-08T03:24:54;6.93;;;1.90;;
57395;SDS011;43222;52.912;6.940;2022-12-08T03:27:22;5.55;;;1.67;;
57395;SDS011;43222;52.912;6.940;2022-12-08T03:29:50;7.22;;;2.17;;
57395;SDS011;43222;52.912;6.940;2022-12-08T03:32:26;6.10;;;2.13;;
57395;SDS011;43222;52.912;6.940;2022-12-08T03:34:53;7.53;;;2.40;;
57395;SDS011;43222;52.912;6.940;2022-12-08T03:37:21;8.00;;;2.10;;
57395;SDS011;43222;52.912;6.940;2022-12-08T03:39:47;6.82;;;1.98;;
57395;SDS011;43222;52.912;6.940;2022-12-08T03:42:13;5.55;;;1.58;;
57395;SDS011;43222;52.912;6.940;2022-12-08T03:44:39;6.05;;;1.80;;
57395;SDS011;43222;52.912;6.940;2022-12-08T03:47:05;5.00;;;1.75;;
57395;SDS011;43222;52.912;6.940;2022-12-08T03:49:31;9.82;;;2.13;;
57395;SDS011;43222;52.912;6.940;2022-12-08T03:51:57;5.85;;;1.70;;
57395;SDS011;43222;52.912;6.940;2022-12-08T03:54:23;6.15;;;1.90;;
57395;SDS011;43222;52.912;6.940;2022-12-08T03:56:49;7.50;;;1.70;;
57395;SDS011;43222;52.912;6.940;2022-12-08T03:59:15;4.70;;;1.50;;
57395;SDS011;43222;52.912;6.940;2022-12-08T04:01:41;6.28;;;1.90;;
57395;SDS011;43222;52.912;6.940;2022-12-08T04:04:07;4.82;;;1.67;;
57395;SDS011;43222;52.912;6.940;2022-12-08T04:06:33;4.70;;;1.83;;
57395;SDS011;43222;52.912;6.940;2022-12-08T04:08:59;5.25;;;1.90;;
57395;SDS011;43222;52.912;6.940;2022-12-08T04:11:25;7.78;;;1.95;;
57395;SDS011;43222;52.912;6.940;2022-12-08T04:13:51;4.65;;;1.80;;
57395;SDS011;43222;52.912;6.940;2022-12-08T04:16:19;7.18;;;2.00;;
57395;SDS011;43222;52.912;6.940;2022-12-08T04:18:45;5.95;;;1.77;;
57395;SDS011;43222;52.912;6.940;2022-12-08T04:21:12;4.18;;;1.83;;
57395;SDS011;43222;52.912;6.940;2022-12-08T04:23:38;3.28;;;1.35;;
57395;SDS011;43222;52.912;6.940;2022-12-08T04:26:04;5.32;;;1.50;;
57395;SDS011;43222;52.912;6.940;2022-12-08T04:28:30;5.40;;;1.70;;
57395;SDS011;43222;52.912;6.940;2022-12-08T04:30:57;4.28;;;1.50;;
57395;SDS011;43222;52.912;6.940;2022-12-08T04:33:23;5.38;;;1.38;;
57395;SDS011;43222;52.912;6.940;2022-12-08T04:35:49;3.42;;;1.17;;
57395;SDS011;43222;52.912;6.940;2022-12-08T04:38:15;3.92;;;1.20;;
57395;SDS011;43222;52.912;6.940;2022-12-08T04:40:41;4.03;;;1.10;;
57395;SDS011;43222;52.912;6.940;2022-12-08T04:43:07;3.65;;;1.02;;
57395;SDS011;43222;52.912;6.940;2022-12-08T04:45:33;3.08;;;0.90;;
57395;SDS011;43222;52.912;6.940;2022-12-08T04:48:00;3.75;;;0.90;;
57395;SDS011;43222;52.912;6.940;2022-12-08T04:50:26;6.32;;;1.10;;
57395;SDS011;43222;52.912;6.940;2022-12-08T04:52:52;3.78;;;1.23;;
57395;SDS011;43222;52.912;6.940;2022-12-08T04:55:19;5.40;;;1.20;;
57395;SDS011;43222;52.912;6.940;2022-12-08T04:57:45;4.32;;;1.10;;
57395;SDS011;43222;52.912;6.940;2022-12-08T05:00:11;6.28;;;2.20;;
57395;SDS011;43222;52.912;6.940;2022-12-08T05:02:37;4.45;;;1.13;;
57395;SDS011;43222;52.912;6.940;2022-12-08T05:05:04;2.35;;;0.90;;
57395;SDS011;43222;52.912;6.940;2022-12-08T05:07:30;5.75;;;1.10;;
57395;SDS011;43222;52.912;6.940;2022-12-08T05:09:56;4.32;;;1.20;;
57395;SDS011;43222;52.912;6.940;2022-12-08T05:12:22;5.50;;;1.55;;
57395;SDS011;43222;52.912;6.940;2022-12-08T05:14:48;5.07;;;1.38;;
57395;SDS011;43222;52.912;6.940;2022-12-08T05:17:15;2.80;;;1.30;;
57395;SDS011;43222;52.912;6.940;2022-12-08T05:19:41;5.55;;;1.30;;
57395;SDS011;43222;52.912;6.940;2022-12-08T05:22:07;4.90;;;1.40;;
57395;SDS011;43222;52.912;6.940;2022-12-08T05:24:33;4.22;;;1.35;;
57395;SDS011;43222;52.912;6.940;2022-12-08T05:26:59;4.45;;;1.60;;
57395;SDS011;43222;52.912;6.940;2022-12-08T05:29:26;5.60;;;1.58;;
57395;SDS011;43222;52.912;6.940;2022-12-08T05:31:52;5.88;;;1.50;;
57395;SDS011;43222;52.912;6.940;2022-12-08T05:34:18;4.85;;;1.50;;
57395;SDS011;43222;52.912;6.940;2022-12-08T05:36:44;5.40;;;1.50;;
57395;SDS011;43222;52.912;6.940;2022-12-08T05:39:13;5.07;;;1.80;;
57395;SDS011;43222;52.912;6.940;2022-12-08T05:41:40;4.65;;;1.60;;
57395;SDS011;43222;52.912;6.940;2022-12-08T05:44:06;4.63;;;1.42;;
57395;SDS011;43222;52.912;6.940;2022-12-08T05:46:32;3.55;;;1.30;;
57395;SDS011;43222;52.912;6.940;2022-12-08T05:48:59;4.90;;;1.50;;
57395;SDS011;43222;52.912;6.940;2022-12-08T05:51:25;5.05;;;1.52;;
57395;SDS011;43222;52.912;6.940;2022-12-08T05:53:52;4.57;;;1.65;;
57395;SDS011;43222;52.912;6.940;2022-12-08T05:56:18;5.03;;;1.60;;
57395;SDS011;43222;52.912;6.940;2022-12-08T05:58:44;5.15;;;1.85;;
57395;SDS011;43222;52.912;6.940;2022-12-08T06:01:17;4.25;;;1.60;;
57395;SDS011;43222;52.912;6.940;2022-12-08T06:03:44;4.28;;;1.60;;
57395;SDS011;43222;52.912;6.940;2022-12-08T06:06:10;7.50;;;1.88;;
57395;SDS011;43222;52.912;6.940;2022-12-08T06:08:36;4.47;;;1.40;;
57395;SDS011;43222;52.912;6.940;2022-12-08T06:11:02;3.80;;;1.30;;
57395;SDS011;43222;52.912;6.940;2022-12-08T06:13:28;3.22;;;1.05;;
57395;SDS011;43222;52.912;6.940;2022-12-08T06:15:54;4.28;;;1.05;;
57395;SDS011;43222;52.912;6.940;2022-12-08T06:18:20;4.53;;;1.20;;
57395;SDS011;43222;52.912;6.940;2022-12-08T06:20:46;2.45;;;0.80;;
57395;SDS011;43222;52.912;6.940;2022-12-08T06:23:12;3.40;;;0.85;;
57395;SDS011;43222;52.912;6.940;2022-12-08T06:25:38;4.95;;;0.82;;
57395;SDS011;43222;52.912;6.940;2022-12-08T06:28:04;3.75;;;0.90;;
57395;SDS011;43222;52.912;6.940;2022-12-08T06:30:31;3.42;;;1.10;;
57395;SDS011;43222;52.912;6.940;2022-12-08T06:32:57;6.15;;;1.45;;
57395;SDS011;43222;52.912;6.940;2022-12-08T06:35:24;3.63;;;1.20;;
57395;SDS011;43222;52.912;6.940;2022-12-08T06:37:50;4.93;;;1.30;;
57395;SDS011;43222;52.912;6.940;2022-12-08T06:40:16;2.88;;;1.05;;
57395;SDS011;43222;52.912;6.940;2022-12-08T06:42:42;4.20;;;0.80;;
57395;SDS011;43222;52.912;6.940;2022-12-08T06:45:09;4.57;;;1.17;;
57395;SDS011;43222;52.912;6.940;2022-12-08T06:47:35;4.15;;;1.23;;
57395;SDS011;43222;52.912;6.940;2022-12-08T06:50:02;4.60;;;0.90;;
57395;SDS011;43222;52.912;6.940;2022-12-08T06:52:28;4.93;;;0.98;;
57395;SDS011;43222;52.912;6.940;2022-12-08T06:54:54;3.17;;;0.70;;
57395;SDS011;43222;52.912;6.940;2022-12-08T06:57:20;3.53;;;0.80;;
57395;SDS011;43222;52.912;6.940;2022-12-08T06:59:48;2.60;;;0.82;;
57395;SDS011;43222;52.912;6.940;2022-12-08T07:02:14;3.05;;;1.00;;
57395;SDS011;43222;52.912;6.940;2022-12-08T07:04:41;5.88;;;1.13;;
57395;SDS011;43222;52.912;6.940;2022-12-08T07:07:07;2.95;;;0.90;;
57395;SDS011;43222;52.912;6.940;2022-12-08T07:09:33;3.55;;;0.85;;
57395;SDS011;43222;52.912;6.940;2022-12-08T07:11:59;4.60;;;0.95;;
57395;SDS011;43222;52.912;6.940;2022-12-08T07:14:25;6.13;;;1.45;;
57395;SDS011;43222;52.912;6.940;2022-12-08T07:16:51;4.43;;;1.52;;
57395;SDS011;43222;52.912;6.940;2022-12-08T07:19:17;8.40;;;2.55;;
57395;SDS011;43222;52.912;6.940;2022-12-08T07:21:43;8.88;;;3.28;;
57395;SDS011;43222;52.912;6.940;2022-12-08T07:24:09;6.18;;;2.85;;
57395;SDS011;43222;52.912;6.940;2022-12-08T07:26:36;7.90;;;3.38;;
57395;SDS011;43222;52.912;6.940;2022-12-08T07:29:02;7.35;;;3.45;;
57395;SDS011;43222;52.912;6.940;2022-12-08T07:31:28;7.05;;;4.03;;
57395;SDS011;43222;52.912;6.940;2022-12-08T07:33:55;11.13;;;4.63;;
57395;SDS011;43222;52.912;6.940;2022-12-08T07:36:21;10.10;;;4.95;;
57395;SDS011;43222;52.912;6.940;2022-12-08T07:38:47;11.80;;;4.93;;
57395;SDS011;43222;52.912;6.940;2022-12-08T07:41:14;9.82;;;4.88;;
57395;SDS011;43222;52.912;6.940;2022-12-08T07:43:41;9.43;;;4.45;;
57395;SDS011;43222;52.912;6.940;2022-12-08T07:46:10;10.25;;;4.70;;
57395;SDS011;43222;52.912;6.940;2022-12-08T07:48:36;11.23;;;5.03;;
57395;SDS011;43222;52.912;6.940;2022-12-08T07:51:02;13.32;;;6.30;;
57395;SDS011;43222;52.912;6.940;2022-12-08T07:53:29;11.43;;;6.18;;
57395;SDS011;43222;52.912;6.940;2022-12-08T07:55:55;14.38;;;7.57;;
57395;SDS011;43222;52.912;6.940;2022-12-08T07:58:21;15.55;;;7.82;;
57395;SDS011;43222;52.912;6.940;2022-12-08T08:00:47;14.38;;;7.35;;
57395;SDS011;43222;52.912;6.940;2022-12-08T08:03:13;12.95;;;7.68;;
57395;SDS011;43222;52.912;6.940;2022-12-08T08:05:40;14.68;;;5.65;;
57395;SDS011;43222;52.912;6.940;2022-12-08T08:08:06;10.15;;;5.15;;
57395;SDS011;43222;52.912;6.940;2022-12-08T08:10:32;11.20;;;4.93;;
57395;SDS011;43222;52.912;6.940;2022-12-08T08:12:58;11.38;;;6.47;;
57395;SDS011;43222;52.912;6.940;2022-12-08T08:15:24;9.13;;;4.00;;
57395;SDS011;43222;52.912;6.940;2022-12-08T08:17:51;9.35;;;4.55;;
57395;SDS011;43222;52.912;6.940;2022-12-08T08:20:18;7.95;;;3.88;;
57395;SDS011;43222;52.912;6.940;2022-12-08T08:22:45;7.03;;;3.30;;
57395;SDS011;43222;52.912;6.940;2022-12-08T08:25:12;6.35;;;3.47;;
57395;SDS011;43222;52.912;6.940;2022-12-08T08:27:38;9.20;;;3.97;;
57395;SDS011;43222;52.912;6.940;2022-12-08T08:30:07;10.38;;;4.93;;
57395;SDS011;43222;52.912;6.940;2022-12-08T08:32:34;9.32;;;5.55;;
57395;SDS011;43222;52.912;6.940;2022-12-08T08:35:00;10.73;;;5.00;;
57395;SDS011;43222;52.912;6.940;2022-12-08T08:37:26;10.95;;;6.40;;
57395;SDS011;43222;52.912;6.940;2022-12-08T08:39:52;11.68;;;7.00;;
57395;SDS011;43222;52.912;6.940;2022-12-08T08:42:19;13.73;;;8.63;;
57395;SDS011;43222;52.912;6.940;2022-12-08T08:44:45;16.73;;;9.20;;
57395;SDS011;43222;52.912;6.940;2022-12-08T08:47:11;10.85;;;6.60;;
57395;SDS011;43222;52.912;6.940;2022-12-08T08:49:37;9.75;;;5.38;;
57395;SDS011;43222;52.912;6.940;2022-12-08T08:52:03;9.57;;;5.38;;
57395;SDS011;43222;52.912;6.940;2022-12-08T08:54:30;11.98;;;5.65;;
57395;SDS011;43222;52.912;6.940;2022-12-08T08:56:56;9.10;;;4.88;;
57395;SDS011;43222;52.912;6.940;2022-12-08T08:59:23;11.15;;;5.07;;
57395;SDS011;43222;52.912;6.940;2022-12-08T09:01:49;12.27;;;5.13;;
57395;SDS011;43222;52.912;6.940;2022-12-08T09:04:15;12.07;;;4.97;;
57395;SDS011;43222;52.912;6.940;2022-12-08T09:06:41;9.23;;;5.22;;
57395;SDS011;43222;52.912;6.940;2022-12-08T09:09:09;10.90;;;5.45;;
57395;SDS011;43222;52.912;6.940;2022-12-08T09:11:35;9.20;;;5.18;;
57395;SDS011;43222;52.912;6.940;2022-12-08T09:14:01;8.75;;;4.55;;
57395;SDS011;43222;52.912;6.940;2022-12-08T09:16:28;12.25;;;5.10;;
57395;SDS011;43222;52.912;6.940;2022-12-08T09:18:54;11.07;;;5.70;;
57395;SDS011;43222;52.912;6.940;2022-12-08T09:21:21;10.80;;;4.97;;
57395;SDS011;43222;52.912;6.940;2022-12-08T09:23:48;11.80;;;4.45;;
57395;SDS011;43222;52.912;6.940;2022-12-08T09:26:14;9.45;;;4.25;;
57395;SDS011;43222;52.912;6.940;2022-12-08T09:28:40;7.65;;;3.88;;
57395;SDS011;43222;52.912;6.940;2022-12-08T09:31:13;11.57;;;4.00;;
57395;SDS011;43222;52.912;6.940;2022-12-08T09:33:39;8.35;;;4.03;;
57395;SDS011;43222;52.912;6.940;2022-12-08T09:36:05;9.10;;;4.25;;
57395;SDS011;43222;52.912;6.940;2022-12-08T09:38:31;8.30;;;3.33;;
57395;SDS011;43222;52.912;6.940;2022-12-08T09:40:58;8.30;;;3.58;;
57395;SDS011;43222;52.912;6.940;2022-12-08T09:45:53;8.38;;;3.58;;
57395;SDS011;43222;52.912;6.940;2022-12-08T09:48:22;11.57;;;3.83;;
57395;SDS011;43222;52.912;6.940;2022-12-08T09:50:50;9.38;;;3.60;;
57395;SDS011;43222;52.912;6.940;2022-12-08T09:53:29;17.50;;;3.83;;
57395;SDS011;43222;52.912;6.940;2022-12-08T09:56:00;12.18;;;3.70;;
57395;SDS011;43222;52.912;6.940;2022-12-08T10:00:54;11.88;;;3.28;;
57395;SDS011;43222;52.912;6.940;2022-12-08T10:03:21;11.18;;;3.05;;
57395;SDS011;43222;52.912;6.940;2022-12-08T10:05:53;10.10;;;3.17;;
57395;SDS011;43222;52.912;6.940;2022-12-08T10:08:22;16.58;;;3.25;;
57395;SDS011;43222;52.912;6.940;2022-12-08T10:10:54;11.10;;;2.85;;
57395;SDS011;43222;52.912;6.940;2022-12-08T10:13:32;11.80;;;3.42;;
57395;SDS011;43222;52.912;6.940;2022-12-08T10:18:29;9.27;;;3.80;;
57395;SDS011;43222;52.912;6.940;2022-12-08T10:20:57;12.20;;;3.53;;
57395;SDS011;43222;52.912;6.940;2022-12-08T10:23:32;10.48;;;3.67;;
57395;SDS011;43222;52.912;6.940;2022-12-08T10:28:26;13.93;;;5.57;;
57395;SDS011;43222;52.912;6.940;2022-12-08T10:30:52;17.33;;;4.82;;
57395;SDS011;43222;52.912;6.940;2022-12-08T10:33:19;13.43;;;3.92;;
57395;SDS011;43222;52.912;6.940;2022-12-08T10:35:55;12.63;;;3.13;;
57395;SDS011;43222;52.912;6.940;2022-12-08T10:38:25;21.77;;;4.60;;
57395;SDS011;43222;52.912;6.940;2022-12-08T10:40:52;15.05;;;3.58;;
57395;SDS011;43222;52.912;6.940;2022-12-08T10:43:23;10.63;;;3.40;;
57395;SDS011;43222;52.912;6.940;2022-12-08T10:45:50;12.02;;;3.53;;
57395;SDS011;43222;52.912;6.940;2022-12-08T10:58:26;9.20;;;2.15;;
57395;SDS011;43222;52.912;6.940;2022-12-08T11:00:53;13.68;;;2.53;;
57395;SDS011;43222;52.912;6.940;2022-12-08T11:03:21;8.68;;;2.10;;
57395;SDS011;43222;52.912;6.940;2022-12-08T11:05:49;8.52;;;2.10;;
57395;SDS011;43222;52.912;6.940;2022-12-08T11:08:15;6.28;;;1.83;;
57395;SDS011;43222;52.912;6.940;2022-12-08T11:10:42;6.60;;;2.10;;
57395;SDS011;43222;52.912;6.940;2022-12-08T11:13:13;5.43;;;1.80;;
57395;SDS011;43222;52.912;6.940;2022-12-08T11:15:41;9.73;;;2.25;;
57395;SDS011;43222;52.912;6.940;2022-12-08T11:20:47;6.38;;;2.17;;
57395;SDS011;43222;52.912;6.940;2022-12-08T11:23:21;6.15;;;2.00;;
57395;SDS011;43222;52.912;6.940;2022-12-08T11:25:48;7.97;;;2.30;;
57395;SDS011;43222;52.912;6.940;2022-12-08T11:28:15;7.63;;;2.38;;
57395;SDS011;43222;52.912;6.940;2022-12-08T11:30:42;9.02;;;2.67;;
57395;SDS011;43222;52.912;6.940;2022-12-08T11:33:23;8.18;;;2.55;;
57395;SDS011;43222;52.912;6.940;2022-12-08T11:38:25;9.30;;;3.05;;
57395;SDS011;43222;52.912;6.940;2022-12-08T11:40:53;10.13;;;3.22;;
57395;SDS011;43222;52.912;6.940;2022-12-08T11:43:22;7.70;;;3.30;;
57395;SDS011;43222;52.912;6.940;2022-12-08T11:45:52;11.50;;;3.65;;
57395;SDS011;43222;52.912;6.940;2022-12-08T11:48:26;9.55;;;3.72;;
57395;SDS011;43222;52.912;6.940;2022-12-08T11:51:04;7.18;;;3.15;;
57395;SDS011;43222;52.912;6.940;2022-12-08T11:53:35;8.07;;;3.00;;
57395;SDS011;43222;52.912;6.940;2022-12-08T11:58:56;12.00;;;3.35;;
57395;SDS011;43222;52.912;6.940;2022-12-08T12:01:24;18.85;;;3.40;;
57395;SDS011;43222;52.912;6.940;2022-12-08T12:03:58;10.10;;;2.97;;
57395;SDS011;43222;52.912;6.940;2022-12-08T12:17:05;11.75;;;3.40;;
57395;SDS011;43222;52.912;6.940;2022-12-08T12:19:34;7.38;;;2.47;;
57395;SDS011;43222;52.912;6.940;2022-12-08T12:22:16;8.32;;;3.03;;
57395;SDS011;43222;52.912;6.940;2022-12-08T12:24:44;6.07;;;2.60;;
57395;SDS011;43222;52.912;6.940;2022-12-08T12:29:43;13.10;;;3.10;;
57395;SDS011;43222;52.912;6.940;2022-12-08T12:32:10;10.40;;;3.05;;
57395;SDS011;43222;52.912;6.940;2022-12-08T12:34:38;18.15;;;3.80;;
57395;SDS011;43222;52.912;6.940;2022-12-08T12:37:10;9.32;;;3.03;;
57395;SDS011;43222;52.912;6.940;2022-12-08T12:58:19;14.98;;;3.22;;
57395;SDS011;43222;52.912;6.940;2022-12-08T13:00:45;10.57;;;3.70;;
57395;SDS011;43222;52.912;6.940;2022-12-08T13:03:13;12.70;;;3.47;;
57395;SDS011;43222;52.912;6.940;2022-12-08T13:05:47;13.60;;;3.38;;
57395;SDS011;43222;52.912;6.940;2022-12-08T13:08:20;11.40;;;3.17;;
57395;SDS011;43222;52.912;6.940;2022-12-08T13:13:22;18.50;;;3.33;;
57395;SDS011;43222;52.912;6.940;2022-12-08T13:20:49;15.95;;;3.53;;
57395;SDS011;43222;52.912;6.940;2022-12-08T13:25:52;10.25;;;3.50;;
57395;SDS011;43222;52.912;6.940;2022-12-08T13:28:27;6.95;;;3.30;;
57395;SDS011;43222;52.912;6.940;2022-12-08T13:30:54;21.67;;;3.90;;
57395;SDS011;43222;52.912;6.940;2022-12-08T13:33:28;10.80;;;5.78;;
57395;SDS011;43222;52.912;6.940;2022-12-08T13:36:03;15.68;;;5.75;;
57395;SDS011;43222;52.912;6.940;2022-12-08T13:38:30;20.67;;;4.93;;
57395;SDS011;43222;52.912;6.940;2022-12-08T13:41:00;11.73;;;3.40;;
57395;SDS011;43222;52.912;6.940;2022-12-08T13:43:34;27.50;;;4.93;;
57395;SDS011;43222;52.912;6.940;2022-12-08T13:46:03;10.82;;;3.58;;
57395;SDS011;43222;52.912;6.940;2022-12-08T13:48:30;30.33;;;5.75;;
57395;SDS011;43222;52.912;6.940;2022-12-08T13:53:29;21.10;;;4.93;;
57395;SDS011;43222;52.912;6.940;2022-12-08T13:56:01;14.95;;;3.58;;
57395;SDS011;43222;52.912;6.940;2022-12-08T13:58:28;11.15;;;2.83;;
57395;SDS011;43222;52.912;6.940;2022-12-08T14:03:27;20.98;;;4.47;;
57395;SDS011;43222;52.912;6.940;2022-12-08T14:05:53;12.80;;;3.42;;
57395;SDS011;43222;52.912;6.940;2022-12-08T14:08:27;16.75;;;4.13;;
57395;SDS011;43222;52.912;6.940;2022-12-08T14:10:56;13.30;;;3.67;;
57395;SDS011;43222;52.912;6.940;2022-12-08T14:13:23;15.13;;;3.92;;
57395;SDS011;43222;52.912;6.940;2022-12-08T14:15:50;12.20;;;2.55;;
57395;SDS011;43222;52.912;6.940;2022-12-08T14:18:27;12.65;;;2.90;;
57395;SDS011;43222;52.912;6.940;2022-12-08T14:21:08;25.90;;;3.80;;
57395;SDS011;43222;52.912;6.940;2022-12-08T14:23:36;7.95;;;3.00;;
57395;SDS011;43222;52.912;6.940;2022-12-08T14:26:02;10.15;;;3.88;;
57395;SDS011;43222;52.912;6.940;2022-12-08T14:28:30;17.80;;;6.20;;
57395;SDS011;43222;52.912;6.940;2022-12-08T14:30:56;21.33;;;7.97;;
57395;SDS011;43222;52.912;6.940;2022-12-08T14:33:23;13.27;;;5.82;;
57395;SDS011;43222;52.912;6.940;2022-12-08T14:35:50;12.90;;;3.90;;
57395;SDS011;43222;52.912;6.940;2022-12-08T14:38:18;11.55;;;3.95;;
57395;SDS011;43222;52.912;6.940;2022-12-08T14:40:48;13.05;;;4.18;;
57395;SDS011;43222;52.912;6.940;2022-12-08T14:43:25;11.73;;;4.30;;
57395;SDS011;43222;52.912;6.940;2022-12-08T14:45:51;14.23;;;4.50;;
57395;SDS011;43222;52.912;6.940;2022-12-08T14:48:19;10.75;;;4.70;;
57395;SDS011;43222;52.912;6.940;2022-12-08T14:55:56;14.07;;;4.50;;
57395;SDS011;43222;52.912;6.940;2022-12-08T14:58:28;8.48;;;4.05;;
57395;SDS011;43222;52.912;6.940;2022-12-08T15:00:56;12.77;;;5.13;;
57395;SDS011;43222;52.912;6.940;2022-12-08T15:03:23;14.43;;;7.15;;
57395;SDS011;43222;52.912;6.940;2022-12-08T15:05:51;15.73;;;9.80;;
57395;SDS011;43222;52.912;6.940;2022-12-08T15:08:17;17.55;;;9.93;;
57395;SDS011;43222;52.912;6.940;2022-12-08T15:10:43;19.75;;;8.25;;
57395;SDS011;43222;52.912;6.940;2022-12-08T15:15:44;29.50;;;9.23;;
57395;SDS011;43222;52.912;6.940;2022-12-08T15:18:12;26.48;;;8.00;;
57395;SDS011;43222;52.912;6.940;2022-12-08T15:20:40;20.85;;;6.75;;
57395;SDS011;43222;52.912;6.940;2022-12-08T15:23:24;14.90;;;5.82;;
57395;SDS011;43222;52.912;6.940;2022-12-08T15:25:51;14.00;;;5.95;;
57395;SDS011;43222;52.912;6.940;2022-12-08T15:28:18;19.27;;;6.47;;
57395;SDS011;43222;52.912;6.940;2022-12-08T15:30:44;10.10;;;4.60;;
57395;SDS011;43222;52.912;6.940;2022-12-08T15:33:11;12.27;;;5.00;;
57395;SDS011;43222;52.912;6.940;2022-12-08T15:35:37;15.02;;;6.30;;
57395;SDS011;43222;52.912;6.940;2022-12-08T15:38:04;13.68;;;6.63;;
57395;SDS011;43222;52.912;6.940;2022-12-08T15:40:30;12.77;;;6.80;;
57395;SDS011;43222;52.912;6.940;2022-12-08T15:42:56;15.18;;;6.82;;
57395;SDS011;43222;52.912;6.940;2022-12-08T15:45:25;13.15;;;6.97;;
57395;SDS011;43222;52.912;6.940;2022-12-08T15:47:52;15.50;;;8.07;;
57395;SDS011;43222;52.912;6.940;2022-12-08T15:50:19;14.85;;;7.80;;
57395;SDS011;43222;52.912;6.940;2022-12-08T15:52:46;14.48;;;6.80;;
57395;SDS011;43222;52.912;6.940;2022-12-08T15:55:12;11.88;;;7.07;;
57395;SDS011;43222;52.912;6.940;2022-12-08T15:57:39;14.27;;;6.25;;
57395;SDS011;43222;52.912;6.940;2022-12-08T16:00:06;15.73;;;5.82;;
57395;SDS011;43222;52.912;6.940;2022-12-08T16:02:32;13.65;;;5.03;;
57395;SDS011;43222;52.912;6.940;2022-12-08T16:04:58;11.52;;;4.78;;
57395;SDS011;43222;52.912;6.940;2022-12-08T16:07:26;8.77;;;4.35;;
57395;SDS011;43222;52.912;6.940;2022-12-08T16:09:52;9.98;;;4.78;;
57395;SDS011;43222;52.912;6.940;2022-12-08T16:12:23;11.55;;;5.22;;
57395;SDS011;43222;52.912;6.940;2022-12-08T16:15:08;10.48;;;4.90;;
57395;SDS011;43222;52.912;6.940;2022-12-08T16:17:35;12.85;;;5.95;;
57395;SDS011;43222;52.912;6.940;2022-12-08T16:20:02;15.30;;;5.93;;
57395;SDS011;43222;52.912;6.940;2022-12-08T16:22:29;12.23;;;5.53;;
57395;SDS011;43222;52.912;6.940;2022-12-08T16:24:56;14.30;;;6.90;;
57395;SDS011;43222;52.912;6.940;2022-12-08T16:27:28;12.38;;;6.68;;
57395;SDS011;43222;52.912;6.940;2022-12-08T16:29:55;12.73;;;7.15;;
57395;SDS011;43222;52.912;6.940;2022-12-08T16:32:21;13.45;;;7.93;;
57395;SDS011;43222;52.912;6.940;2022-12-08T16:34:48;15.82;;;8.02;;
57395;SDS011;43222;52.912;6.940;2022-12-08T16:37:15;11.77;;;7.40;;
57395;SDS011;43222;52.912;6.940;2022-12-08T16:39:41;16.08;;;8.65;;
57395;SDS011;43222;52.912;6.940;2022-12-08T16:42:11;19.35;;;7.53;;